sensor_id;sensor_type;location;lat;lon;timestamp;P1;durP1;ratioP1;P2;durP2;ratioP2
70297;SDS011;57702;44.420;20.298;2023-02-22T00:00:35;16.90;;;8.35;;
70297;SDS011;57702;44.420;20.298;2023-02-22T00:03:08;33.20;;;7.57;;
70297;SDS011;57702;44.420;20.298;2023-02-22T00:05:35;31.85;;;10.98;;
70297;SDS011;57702;44.420;20.298;2023-02-22T00:08:03;28.10;;;8.73;;
70297;SDS011;57702;44.420;20.298;2023-02-22T00:10:33;41.70;;;12.20;;
70297;SDS011;57702;44.420;20.298;2023-02-22T00:13:03;54.60;;;12.00;;
70297;SDS011;57702;44.420;20.298;2023-02-22T00:15:30;104.43;;;24.30;;
70297;SDS011;57702;44.420;20.298;2023-02-22T00:17:57;101.38;;;25.42;;
70297;SDS011;57702;44.420;20.298;2023-02-22T00:20:24;83.53;;;19.52;;
70297;SDS011;57702;44.420;20.298;2023-02-22T00:22:51;70.60;;;19.95;;
70297;SDS011;57702;44.420;20.298;2023-02-22T00:25:18;61.22;;;15.98;;
70297;SDS011;57702;44.420;20.298;2023-02-22T00:27:45;31.80;;;11.75;;
70297;SDS011;57702;44.420;20.298;2023-02-22T00:30:22;56.40;;;15.68;;
70297;SDS011;57702;44.420;20.298;2023-02-22T00:32:51;35.50;;;14.23;;
70297;SDS011;57702;44.420;20.298;2023-02-22T00:35:19;22.42;;;11.05;;
70297;SDS011;57702;44.420;20.298;2023-02-22T00:37:47;24.63;;;10.93;;
70297;SDS011;57702;44.420;20.298;2023-02-22T00:40:15;14.75;;;7.10;;
70297;SDS011;57702;44.420;20.298;2023-02-22T00:42:42;30.92;;;8.80;;
70297;SDS011;57702;44.420;20.298;2023-02-22T00:45:08;21.15;;;8.63;;
70297;SDS011;57702;44.420;20.298;2023-02-22T00:47:34;13.73;;;8.10;;
70297;SDS011;57702;44.420;20.298;2023-02-22T00:50:00;15.52;;;6.43;;
70297;SDS011;57702;44.420;20.298;2023-02-22T00:52:27;20.45;;;7.35;;
70297;SDS011;57702;44.420;20.298;2023-02-22T00:54:54;14.45;;;6.35;;
70297;SDS011;57702;44.420;20.298;2023-02-22T00:57:21;22.23;;;6.82;;
70297;SDS011;57702;44.420;20.298;2023-02-22T00:59:47;15.95;;;6.50;;
70297;SDS011;57702;44.420;20.298;2023-02-22T01:02:14;12.40;;;6.15;;
70297;SDS011;57702;44.420;20.298;2023-02-22T01:04:40;19.80;;;8.20;;
70297;SDS011;57702;44.420;20.298;2023-02-22T01:07:06;15.88;;;6.57;;
70297;SDS011;57702;44.420;20.298;2023-02-22T01:09:32;27.63;;;9.55;;
70297;SDS011;57702;44.420;20.298;2023-02-22T01:11:59;30.05;;;10.70;;
70297;SDS011;57702;44.420;20.298;2023-02-22T01:14:26;15.98;;;6.80;;
70297;SDS011;57702;44.420;20.298;2023-02-22T01:16:56;10.48;;;5.78;;
70297;SDS011;57702;44.420;20.298;2023-02-22T01:19:22;15.50;;;8.23;;
70297;SDS011;57702;44.420;20.298;2023-02-22T01:21:48;18.70;;;7.80;;
70297;SDS011;57702;44.420;20.298;2023-02-22T01:24:15;29.85;;;9.63;;
70297;SDS011;57702;44.420;20.298;2023-02-22T01:26:42;31.30;;;8.52;;
70297;SDS011;57702;44.420;20.298;2023-02-22T01:29:13;29.15;;;12.43;;
70297;SDS011;57702;44.420;20.298;2023-02-22T01:31:40;59.92;;;13.45;;
70297;SDS011;57702;44.420;20.298;2023-02-22T01:34:09;57.13;;;16.92;;
70297;SDS011;57702;44.420;20.298;2023-02-22T01:36:35;49.25;;;11.68;;
70297;SDS011;57702;44.420;20.298;2023-02-22T01:39:02;26.23;;;12.15;;
70297;SDS011;57702;44.420;20.298;2023-02-22T01:41:28;39.92;;;12.65;;
70297;SDS011;57702;44.420;20.298;2023-02-22T01:43:54;26.13;;;9.90;;
70297;SDS011;57702;44.420;20.298;2023-02-22T01:46:22;38.40;;;9.43;;
70297;SDS011;57702;44.420;20.298;2023-02-22T01:48:49;27.30;;;11.27;;
70297;SDS011;57702;44.420;20.298;2023-02-22T01:51:18;18.33;;;9.00;;
70297;SDS011;57702;44.420;20.298;2023-02-22T01:53:54;20.90;;;8.77;;
70297;SDS011;57702;44.420;20.298;2023-02-22T01:56:22;23.40;;;8.98;;
70297;SDS011;57702;44.420;20.298;2023-02-22T01:58:56;25.15;;;7.25;;
70297;SDS011;57702;44.420;20.298;2023-02-22T02:01:26;12.77;;;7.35;;
70297;SDS011;57702;44.420;20.298;2023-02-22T02:03:59;19.77;;;7.68;;
70297;SDS011;57702;44.420;20.298;2023-02-22T02:06:27;14.60;;;7.55;;
70297;SDS011;57702;44.420;20.298;2023-02-22T02:12:10;11.45;;;7.82;;
70297;SDS011;57702;44.420;20.298;2023-02-22T02:14:37;16.95;;;8.32;;
70297;SDS011;57702;44.420;20.298;2023-02-22T02:17:07;55.70;;;9.30;;
70297;SDS011;57702;44.420;20.298;2023-02-22T02:22:29;16.33;;;7.75;;
70297;SDS011;57702;44.420;20.298;2023-02-22T02:25:07;14.45;;;8.63;;
70297;SDS011;57702;44.420;20.298;2023-02-22T02:28:20;12.65;;;6.47;;
70297;SDS011;57702;44.420;20.298;2023-02-22T02:30:39;4.80;;;4.32;;
70297;SDS011;57702;44.420;20.298;2023-02-22T02:33:20;20.10;;;7.75;;
70297;SDS011;57702;44.420;20.298;2023-02-22T02:35:48;11.95;;;7.60;;
70297;SDS011;57702;44.420;20.298;2023-02-22T02:38:33;7.25;;;5.45;;
70297;SDS011;57702;44.420;20.298;2023-02-22T02:41:08;14.75;;;9.77;;
70297;SDS011;57702;44.420;20.298;2023-02-22T02:43:45;26.13;;;9.27;;
70297;SDS011;57702;44.420;20.298;2023-02-22T02:46:32;16.98;;;5.57;;
70297;SDS011;57702;44.420;20.298;2023-02-22T02:49:06;19.30;;;7.88;;
70297;SDS011;57702;44.420;20.298;2023-02-22T02:51:35;17.05;;;8.52;;
70297;SDS011;57702;44.420;20.298;2023-02-22T02:54:02;15.07;;;6.30;;
70297;SDS011;57702;44.420;20.298;2023-02-22T02:56:33;9.65;;;5.65;;
70297;SDS011;57702;44.420;20.298;2023-02-22T02:58:59;21.77;;;7.15;;
70297;SDS011;57702;44.420;20.298;2023-02-22T03:01:38;25.90;;;9.45;;
70297;SDS011;57702;44.420;20.298;2023-02-22T03:06:41;18.95;;;6.72;;
70297;SDS011;57702;44.420;20.298;2023-02-22T03:19:09;30.60;;;8.43;;
70297;SDS011;57702;44.420;20.298;2023-02-22T03:24:24;27.70;;;9.40;;
70297;SDS011;57702;44.420;20.298;2023-02-22T03:26:59;17.88;;;6.85;;
70297;SDS011;57702;44.420;20.298;2023-02-22T03:29:28;40.85;;;11.18;;
70297;SDS011;57702;44.420;20.298;2023-02-22T03:31:59;14.35;;;6.15;;
70297;SDS011;57702;44.420;20.298;2023-02-22T03:34:28;10.07;;;7.13;;
70297;SDS011;57702;44.420;20.298;2023-02-22T03:36:56;19.77;;;7.72;;
70297;SDS011;57702;44.420;20.298;2023-02-22T03:39:24;29.10;;;9.27;;
70297;SDS011;57702;44.420;20.298;2023-02-22T03:42:00;33.78;;;10.23;;
70297;SDS011;57702;44.420;20.298;2023-02-22T03:44:30;20.10;;;10.63;;
70297;SDS011;57702;44.420;20.298;2023-02-22T03:46:59;19.40;;;9.00;;
70297;SDS011;57702;44.420;20.298;2023-02-22T03:49:37;44.70;;;12.77;;
70297;SDS011;57702;44.420;20.298;2023-02-22T03:52:05;31.83;;;8.38;;
70297;SDS011;57702;44.420;20.298;2023-02-22T03:54:32;25.17;;;9.68;;
70297;SDS011;57702;44.420;20.298;2023-02-22T03:57:03;50.42;;;11.50;;
70297;SDS011;57702;44.420;20.298;2023-02-22T03:59:32;19.27;;;7.63;;
70297;SDS011;57702;44.420;20.298;2023-02-22T04:01:59;7.97;;;4.80;;
70297;SDS011;57702;44.420;20.298;2023-02-22T04:04:26;22.63;;;7.90;;
70297;SDS011;57702;44.420;20.298;2023-02-22T04:06:52;49.03;;;5.90;;
70297;SDS011;57702;44.420;20.298;2023-02-22T04:09:18;10.27;;;8.05;;
70297;SDS011;57702;44.420;20.298;2023-02-22T04:11:45;16.48;;;5.50;;
70297;SDS011;57702;44.420;20.298;2023-02-22T04:14:11;21.45;;;7.50;;
70297;SDS011;57702;44.420;20.298;2023-02-22T04:16:37;17.00;;;7.53;;
70297;SDS011;57702;44.420;20.298;2023-02-22T04:19:04;28.30;;;8.65;;
70297;SDS011;57702;44.420;20.298;2023-02-22T04:21:30;11.63;;;7.80;;
70297;SDS011;57702;44.420;20.298;2023-02-22T04:23:57;8.65;;;5.05;;
70297;SDS011;57702;44.420;20.298;2023-02-22T04:26:23;14.68;;;7.78;;
70297;SDS011;57702;44.420;20.298;2023-02-22T04:28:50;37.90;;;7.78;;
70297;SDS011;57702;44.420;20.298;2023-02-22T04:31:16;27.17;;;8.35;;
70297;SDS011;57702;44.420;20.298;2023-02-22T04:33:42;11.05;;;7.78;;
70297;SDS011;57702;44.420;20.298;2023-02-22T04:36:09;15.60;;;8.88;;
70297;SDS011;57702;44.420;20.298;2023-02-22T04:38:35;13.73;;;7.20;;
70297;SDS011;57702;44.420;20.298;2023-02-22T04:41:02;27.30;;;8.95;;
70297;SDS011;57702;44.420;20.298;2023-02-22T04:43:28;12.20;;;5.97;;
70297;SDS011;57702;44.420;20.298;2023-02-22T04:45:54;25.33;;;8.45;;
70297;SDS011;57702;44.420;20.298;2023-02-22T04:48:20;7.60;;;6.03;;
70297;SDS011;57702;44.420;20.298;2023-02-22T04:50:46;7.72;;;5.93;;
70297;SDS011;57702;44.420;20.298;2023-02-22T04:53:13;27.20;;;5.70;;
70297;SDS011;57702;44.420;20.298;2023-02-22T04:55:39;7.63;;;4.13;;
70297;SDS011;57702;44.420;20.298;2023-02-22T04:58:06;13.63;;;5.60;;
70297;SDS011;57702;44.420;20.298;2023-02-22T05:00:32;16.45;;;4.97;;
70297;SDS011;57702;44.420;20.298;2023-02-22T05:02:59;16.02;;;6.43;;
70297;SDS011;57702;44.420;20.298;2023-02-22T05:05:25;8.43;;;3.58;;
70297;SDS011;57702;44.420;20.298;2023-02-22T05:07:51;11.35;;;6.80;;
70297;SDS011;57702;44.420;20.298;2023-02-22T05:10:18;18.35;;;7.85;;
70297;SDS011;57702;44.420;20.298;2023-02-22T05:12:44;45.38;;;12.65;;
70297;SDS011;57702;44.420;20.298;2023-02-22T05:15:23;31.13;;;10.23;;
70297;SDS011;57702;44.420;20.298;2023-02-22T05:17:49;28.65;;;8.48;;
70297;SDS011;57702;44.420;20.298;2023-02-22T05:20:18;34.22;;;10.20;;
70297;SDS011;57702;44.420;20.298;2023-02-22T05:22:46;25.20;;;9.02;;
70297;SDS011;57702;44.420;20.298;2023-02-22T05:25:13;111.05;;;22.20;;
70297;SDS011;57702;44.420;20.298;2023-02-22T05:27:39;40.58;;;12.90;;
70297;SDS011;57702;44.420;20.298;2023-02-22T05:30:06;30.38;;;14.15;;
70297;SDS011;57702;44.420;20.298;2023-02-22T05:32:34;24.25;;;8.77;;
70297;SDS011;57702;44.420;20.298;2023-02-22T05:35:00;36.38;;;8.52;;
70297;SDS011;57702;44.420;20.298;2023-02-22T05:37:26;24.20;;;10.25;;
70297;SDS011;57702;44.420;20.298;2023-02-22T05:39:59;20.05;;;8.68;;
70297;SDS011;57702;44.420;20.298;2023-02-22T05:42:25;23.33;;;10.65;;
70297;SDS011;57702;44.420;20.298;2023-02-22T05:44:52;19.40;;;9.23;;
70297;SDS011;57702;44.420;20.298;2023-02-22T05:47:18;18.90;;;9.02;;
70297;SDS011;57702;44.420;20.298;2023-02-22T05:49:44;14.95;;;7.47;;
70297;SDS011;57702;44.420;20.298;2023-02-22T05:52:10;12.20;;;8.23;;
70297;SDS011;57702;44.420;20.298;2023-02-22T05:54:36;16.98;;;6.05;;
70297;SDS011;57702;44.420;20.298;2023-02-22T05:57:03;13.00;;;6.90;;
70297;SDS011;57702;44.420;20.298;2023-02-22T05:59:29;51.75;;;16.55;;
70297;SDS011;57702;44.420;20.298;2023-02-22T06:01:55;47.67;;;14.02;;
70297;SDS011;57702;44.420;20.298;2023-02-22T06:04:23;18.88;;;8.57;;
70297;SDS011;57702;44.420;20.298;2023-02-22T06:06:49;6.05;;;5.65;;
70297;SDS011;57702;44.420;20.298;2023-02-22T06:09:15;10.32;;;4.65;;
70297;SDS011;57702;44.420;20.298;2023-02-22T06:11:42;25.80;;;12.52;;
70297;SDS011;57702;44.420;20.298;2023-02-22T06:14:08;28.83;;;14.13;;
70297;SDS011;57702;44.420;20.298;2023-02-22T06:16:34;33.47;;;14.07;;
70297;SDS011;57702;44.420;20.298;2023-02-22T06:19:00;35.20;;;11.75;;
70297;SDS011;57702;44.420;20.298;2023-02-22T06:21:26;21.23;;;8.77;;
70297;SDS011;57702;44.420;20.298;2023-02-22T06:23:56;24.00;;;9.98;;
70297;SDS011;57702;44.420;20.298;2023-02-22T06:26:24;40.20;;;12.15;;
70297;SDS011;57702;44.420;20.298;2023-02-22T06:28:50;52.17;;;14.52;;
70297;SDS011;57702;44.420;20.298;2023-02-22T06:31:16;22.42;;;8.00;;
70297;SDS011;57702;44.420;20.298;2023-02-22T06:33:42;13.70;;;7.65;;
70297;SDS011;57702;44.420;20.298;2023-02-22T06:36:09;9.00;;;6.53;;
70297;SDS011;57702;44.420;20.298;2023-02-22T06:38:35;19.75;;;8.98;;
70297;SDS011;57702;44.420;20.298;2023-02-22T06:41:04;28.50;;;9.65;;
70297;SDS011;57702;44.420;20.298;2023-02-22T06:43:31;18.38;;;8.07;;
70297;SDS011;57702;44.420;20.298;2023-02-22T06:45:57;14.80;;;10.60;;
70297;SDS011;57702;44.420;20.298;2023-02-22T06:48:23;33.95;;;12.20;;
70297;SDS011;57702;44.420;20.298;2023-02-22T06:50:49;23.98;;;9.65;;
70297;SDS011;57702;44.420;20.298;2023-02-22T06:53:15;41.05;;;11.98;;
70297;SDS011;57702;44.420;20.298;2023-02-22T06:55:42;40.50;;;14.38;;
70297;SDS011;57702;44.420;20.298;2023-02-22T06:58:08;43.47;;;14.38;;
70297;SDS011;57702;44.420;20.298;2023-02-22T07:00:34;23.50;;;11.15;;
70297;SDS011;57702;44.420;20.298;2023-02-22T07:03:00;16.00;;;9.43;;
70297;SDS011;57702;44.420;20.298;2023-02-22T07:05:28;45.97;;;11.40;;
70297;SDS011;57702;44.420;20.298;2023-02-22T07:08:00;38.58;;;13.27;;
70297;SDS011;57702;44.420;20.298;2023-02-22T07:10:28;16.73;;;9.32;;
70297;SDS011;57702;44.420;20.298;2023-02-22T07:12:54;33.65;;;12.95;;
70297;SDS011;57702;44.420;20.298;2023-02-22T07:15:22;26.85;;;8.32;;
70297;SDS011;57702;44.420;20.298;2023-02-22T07:17:48;31.83;;;10.77;;
70297;SDS011;57702;44.420;20.298;2023-02-22T07:20:15;55.88;;;9.50;;
70297;SDS011;57702;44.420;20.298;2023-02-22T07:22:41;96.47;;;24.70;;
70297;SDS011;57702;44.420;20.298;2023-02-22T07:25:08;22.52;;;8.90;;
70297;SDS011;57702;44.420;20.298;2023-02-22T07:27:36;34.30;;;13.15;;
70297;SDS011;57702;44.420;20.298;2023-02-22T07:30:03;30.35;;;9.05;;
70297;SDS011;57702;44.420;20.298;2023-02-22T07:32:30;13.82;;;7.55;;
70297;SDS011;57702;44.420;20.298;2023-02-22T07:34:56;24.67;;;10.35;;
70297;SDS011;57702;44.420;20.298;2023-02-22T07:37:23;20.33;;;10.10;;
70297;SDS011;57702;44.420;20.298;2023-02-22T07:39:49;31.65;;;10.55;;
70297;SDS011;57702;44.420;20.298;2023-02-22T07:42:15;17.92;;;10.55;;
70297;SDS011;57702;44.420;20.298;2023-02-22T07:44:41;31.52;;;11.10;;
70297;SDS011;57702;44.420;20.298;2023-02-22T07:47:08;36.22;;;10.57;;
70297;SDS011;57702;44.420;20.298;2023-02-22T07:49:36;29.42;;;8.90;;
70297;SDS011;57702;44.420;20.298;2023-02-22T07:52:03;24.42;;;9.70;;
70297;SDS011;57702;44.420;20.298;2023-02-22T07:54:30;24.83;;;9.65;;
70297;SDS011;57702;44.420;20.298;2023-02-22T07:56:56;14.82;;;7.18;;
70297;SDS011;57702;44.420;20.298;2023-02-22T07:59:22;13.45;;;9.35;;
70297;SDS011;57702;44.420;20.298;2023-02-22T08:01:49;25.45;;;11.13;;
70297;SDS011;57702;44.420;20.298;2023-02-22T08:04:15;27.67;;;11.30;;
70297;SDS011;57702;44.420;20.298;2023-02-22T08:06:41;27.10;;;11.95;;
70297;SDS011;57702;44.420;20.298;2023-02-22T08:09:10;35.72;;;10.52;;
70297;SDS011;57702;44.420;20.298;2023-02-22T08:11:36;44.83;;;19.33;;
70297;SDS011;57702;44.420;20.298;2023-02-22T08:14:03;50.67;;;20.15;;
70297;SDS011;57702;44.420;20.298;2023-02-22T08:16:29;89.15;;;25.38;;
70297;SDS011;57702;44.420;20.298;2023-02-22T08:18:55;46.22;;;21.27;;
70297;SDS011;57702;44.420;20.298;2023-02-22T08:21:22;37.33;;;17.95;;
70297;SDS011;57702;44.420;20.298;2023-02-22T08:23:51;58.72;;;19.95;;
70297;SDS011;57702;44.420;20.298;2023-02-22T08:26:20;39.03;;;14.40;;
70297;SDS011;57702;44.420;20.298;2023-02-22T08:28:48;33.05;;;14.98;;
70297;SDS011;57702;44.420;20.298;2023-02-22T08:31:14;30.75;;;10.70;;
70297;SDS011;57702;44.420;20.298;2023-02-22T08:33:40;31.80;;;13.63;;
70297;SDS011;57702;44.420;20.298;2023-02-22T08:36:06;34.92;;;13.90;;
70297;SDS011;57702;44.420;20.298;2023-02-22T08:38:33;35.40;;;14.70;;
70297;SDS011;57702;44.420;20.298;2023-02-22T08:40:59;27.60;;;12.40;;
70297;SDS011;57702;44.420;20.298;2023-02-22T08:43:25;20.15;;;10.48;;
70297;SDS011;57702;44.420;20.298;2023-02-22T08:45:52;21.38;;;9.25;;
70297;SDS011;57702;44.420;20.298;2023-02-22T08:48:19;24.70;;;8.88;;
70297;SDS011;57702;44.420;20.298;2023-02-22T08:53:31;17.98;;;7.72;;
70297;SDS011;57702;44.420;20.298;2023-02-22T08:56:12;9.88;;;6.68;;
70297;SDS011;57702;44.420;20.298;2023-02-22T08:58:50;9.10;;;6.00;;
70297;SDS011;57702;44.420;20.298;2023-02-22T09:01:16;5.57;;;3.92;;
70297;SDS011;57702;44.420;20.298;2023-02-22T09:03:45;11.20;;;6.13;;
70297;SDS011;57702;44.420;20.298;2023-02-22T09:06:12;14.90;;;7.88;;
70297;SDS011;57702;44.420;20.298;2023-02-22T09:08:39;15.68;;;5.53;;
70297;SDS011;57702;44.420;20.298;2023-02-22T09:11:05;10.07;;;3.75;;
70297;SDS011;57702;44.420;20.298;2023-02-22T09:13:32;8.98;;;4.53;;
70297;SDS011;57702;44.420;20.298;2023-02-22T09:15:58;18.40;;;4.53;;
70297;SDS011;57702;44.420;20.298;2023-02-22T09:18:26;12.40;;;4.28;;
70297;SDS011;57702;44.420;20.298;2023-02-22T09:20:55;3.15;;;2.63;;
70297;SDS011;57702;44.420;20.298;2023-02-22T09:23:21;23.23;;;5.20;;
70297;SDS011;57702;44.420;20.298;2023-02-22T09:25:48;7.15;;;3.13;;
70297;SDS011;57702;44.420;20.298;2023-02-22T09:28:15;3.75;;;3.17;;
70297;SDS011;57702;44.420;20.298;2023-02-22T09:30:41;3.15;;;2.58;;
70297;SDS011;57702;44.420;20.298;2023-02-22T09:33:09;9.75;;;3.95;;
70297;SDS011;57702;44.420;20.298;2023-02-22T09:35:43;13.55;;;4.03;;
70297;SDS011;57702;44.420;20.298;2023-02-22T09:38:40;17.15;;;8.13;;
70297;SDS011;57702;44.420;20.298;2023-02-22T09:41:25;13.90;;;6.97;;
70297;SDS011;57702;44.420;20.298;2023-02-22T09:46:48;40.10;;;10.38;;
70297;SDS011;57702;44.420;20.298;2023-02-22T09:49:52;31.85;;;12.15;;
70297;SDS011;57702;44.420;20.298;2023-02-22T09:52:17;18.75;;;8.90;;
70297;SDS011;57702;44.420;20.298;2023-02-22T09:54:49;21.80;;;8.80;;
70297;SDS011;57702;44.420;20.298;2023-02-22T09:57:19;18.45;;;8.07;;
70297;SDS011;57702;44.420;20.298;2023-02-22T09:59:59;21.83;;;8.60;;
70297;SDS011;57702;44.420;20.298;2023-02-22T10:02:38;16.48;;;7.28;;
70297;SDS011;57702;44.420;20.298;2023-02-22T10:05:47;20.13;;;5.38;;
70297;SDS011;57702;44.420;20.298;2023-02-22T10:08:18;12.25;;;5.20;;
70297;SDS011;57702;44.420;20.298;2023-02-22T10:10:47;11.85;;;4.55;;
70297;SDS011;57702;44.420;20.298;2023-02-22T10:13:28;14.93;;;4.90;;
70297;SDS011;57702;44.420;20.298;2023-02-22T10:16:10;11.52;;;5.05;;
70297;SDS011;57702;44.420;20.298;2023-02-22T10:19:11;10.50;;;5.82;;
70297;SDS011;57702;44.420;20.298;2023-02-22T10:24:16;13.57;;;4.72;;
70297;SDS011;57702;44.420;20.298;2023-02-22T10:27:12;15.43;;;4.03;;
70297;SDS011;57702;44.420;20.298;2023-02-22T10:29:43;10.15;;;2.72;;
70297;SDS011;57702;44.420;20.298;2023-02-22T10:32:35;14.05;;;4.03;;
70297;SDS011;57702;44.420;20.298;2023-02-22T10:35:22;2.65;;;1.67;;
70297;SDS011;57702;44.420;20.298;2023-02-22T10:38:00;5.78;;;2.03;;
70297;SDS011;57702;44.420;20.298;2023-02-22T10:40:29;5.43;;;2.63;;
70297;SDS011;57702;44.420;20.298;2023-02-22T10:43:04;4.18;;;2.00;;
70297;SDS011;57702;44.420;20.298;2023-02-22T10:45:38;8.70;;;1.05;;
70297;SDS011;57702;44.420;20.298;2023-02-22T10:48:19;7.03;;;2.03;;
70297;SDS011;57702;44.420;20.298;2023-02-22T10:50:47;3.50;;;1.73;;
70297;SDS011;57702;44.420;20.298;2023-02-22T10:53:36;2.78;;;1.27;;
70297;SDS011;57702;44.420;20.298;2023-02-22T11:01:35;0.75;;;0.75;;
70297;SDS011;57702;44.420;20.298;2023-02-22T11:04:05;3.38;;;1.15;;
70297;SDS011;57702;44.420;20.298;2023-02-22T11:06:44;1.80;;;0.52;;
70297;SDS011;57702;44.420;20.298;2023-02-22T11:09:18;0.60;;;0.30;;
70297;SDS011;57702;44.420;20.298;2023-02-22T11:12:07;0.60;;;0.40;;
70297;SDS011;57702;44.420;20.298;2023-02-22T11:14:47;4.55;;;0.43;;
70297;SDS011;57702;44.420;20.298;2023-02-22T11:17:23;1.33;;;0.75;;
70297;SDS011;57702;44.420;20.298;2023-02-22T11:20:00;0.50;;;0.50;;
70297;SDS011;57702;44.420;20.298;2023-02-22T11:22:39;0.55;;;0.38;;
70297;SDS011;57702;44.420;20.298;2023-02-22T11:25:07;3.08;;;1.05;;
70297;SDS011;57702;44.420;20.298;2023-02-22T11:27:43;2.92;;;1.13;;
70297;SDS011;57702;44.420;20.298;2023-02-22T11:30:19;0.50;;;0.50;;
70297;SDS011;57702;44.420;20.298;2023-02-22T11:32:47;4.90;;;0.77;;
70297;SDS011;57702;44.420;20.298;2023-02-22T11:35:31;1.45;;;0.98;;
70297;SDS011;57702;44.420;20.298;2023-02-22T11:41:33;1.23;;;0.60;;
70297;SDS011;57702;44.420;20.298;2023-02-22T11:43:39;0.60;;;0.40;;
70297;SDS011;57702;44.420;20.298;2023-02-22T11:46:07;1.05;;;0.60;;
70297;SDS011;57702;44.420;20.298;2023-02-22T11:49:08;0.45;;;0.45;;
70297;SDS011;57702;44.420;20.298;2023-02-22T12:03:03;1.25;;;1.15;;
70297;SDS011;57702;44.420;20.298;2023-02-22T12:14:11;5.65;;;1.15;;
70297;SDS011;57702;44.420;20.298;2023-02-22T12:19:36;1.73;;;0.90;;
70297;SDS011;57702;44.420;20.298;2023-02-22T12:30:20;0.93;;;0.93;;
70297;SDS011;57702;44.420;20.298;2023-02-22T12:38:29;7.05;;;1.27;;
70297;SDS011;57702;44.420;20.298;2023-02-22T12:43:47;0.70;;;0.47;;
70297;SDS011;57702;44.420;20.298;2023-02-22T12:46:20;9.82;;;1.52;;
70297;SDS011;57702;44.420;20.298;2023-02-22T12:53:40;4.10;;;1.15;;
70297;SDS011;57702;44.420;20.298;2023-02-22T12:56:27;0.60;;;0.60;;
70297;SDS011;57702;44.420;20.298;2023-02-22T13:01:49;0.45;;;0.45;;
70297;SDS011;57702;44.420;20.298;2023-02-22T13:04:17;1.77;;;0.70;;
70297;SDS011;57702;44.420;20.298;2023-02-22T13:06:58;3.95;;;1.00;;
70297;SDS011;57702;44.420;20.298;2023-02-22T20:47:51;29.60;;;10.45;;
70297;SDS011;57702;44.420;20.298;2023-02-22T20:50:18;36.25;;;10.75;;
70297;SDS011;57702;44.420;20.298;2023-02-22T20:52:44;39.45;;;12.15;;
70297;SDS011;57702;44.420;20.298;2023-02-22T20:55:51;30.52;;;11.13;;
70297;SDS011;57702;44.420;20.298;2023-02-22T20:58:19;37.15;;;10.27;;
70297;SDS011;57702;44.420;20.298;2023-02-22T21:00:47;36.20;;;11.75;;
70297;SDS011;57702;44.420;20.298;2023-02-22T21:03:18;49.95;;;12.70;;
70297;SDS011;57702;44.420;20.298;2023-02-22T21:05:48;22.65;;;10.63;;
70297;SDS011;57702;44.420;20.298;2023-02-22T21:08:15;50.42;;;11.57;;
70297;SDS011;57702;44.420;20.298;2023-02-22T21:10:42;38.83;;;11.98;;
70297;SDS011;57702;44.420;20.298;2023-02-22T21:13:08;24.27;;;9.05;;
70297;SDS011;57702;44.420;20.298;2023-02-22T21:15:35;52.83;;;10.43;;
70297;SDS011;57702;44.420;20.298;2023-02-22T21:18:02;25.98;;;10.45;;
70297;SDS011;57702;44.420;20.298;2023-02-22T21:20:29;50.78;;;13.13;;
70297;SDS011;57702;44.420;20.298;2023-02-22T21:22:55;42.50;;;12.07;;
70297;SDS011;57702;44.420;20.298;2023-02-22T21:25:22;87.50;;;20.92;;
70297;SDS011;57702;44.420;20.298;2023-02-22T21:27:51;106.47;;;23.33;;
70297;SDS011;57702;44.420;20.298;2023-02-22T21:30:17;80.15;;;21.77;;
70297;SDS011;57702;44.420;20.298;2023-02-22T21:32:44;61.53;;;20.20;;
70297;SDS011;57702;44.420;20.298;2023-02-22T21:35:15;45.00;;;15.17;;
70297;SDS011;57702;44.420;20.298;2023-02-22T21:37:41;22.67;;;8.80;;
70297;SDS011;57702;44.420;20.298;2023-02-22T21:40:08;24.25;;;10.00;;
70297;SDS011;57702;44.420;20.298;2023-02-22T21:42:46;20.67;;;7.32;;
70297;SDS011;57702;44.420;20.298;2023-02-22T21:45:19;31.48;;;6.50;;
70297;SDS011;57702;44.420;20.298;2023-02-22T21:47:47;11.10;;;7.45;;
70297;SDS011;57702;44.420;20.298;2023-02-22T21:50:17;14.35;;;8.05;;
70297;SDS011;57702;44.420;20.298;2023-02-22T21:52:44;75.88;;;8.35;;
70297;SDS011;57702;44.420;20.298;2023-02-22T21:55:11;14.80;;;7.10;;
70297;SDS011;57702;44.420;20.298;2023-02-22T21:57:37;40.28;;;11.35;;
70297;SDS011;57702;44.420;20.298;2023-02-22T22:00:05;54.13;;;12.55;;
70297;SDS011;57702;44.420;20.298;2023-02-22T22:02:52;67.60;;;12.90;;
70297;SDS011;57702;44.420;20.298;2023-02-22T22:05:18;60.47;;;13.85;;
70297;SDS011;57702;44.420;20.298;2023-02-22T22:07:52;38.10;;;11.93;;
70297;SDS011;57702;44.420;20.298;2023-02-22T22:10:18;21.58;;;8.93;;
70297;SDS011;57702;44.420;20.298;2023-02-22T22:12:49;44.63;;;14.15;;
70297;SDS011;57702;44.420;20.298;2023-02-22T22:15:16;55.90;;;16.63;;
70297;SDS011;57702;44.420;20.298;2023-02-22T22:17:43;64.32;;;21.10;;
70297;SDS011;57702;44.420;20.298;2023-02-22T22:20:11;61.47;;;12.90;;
70297;SDS011;57702;44.420;20.298;2023-02-22T22:22:44;97.60;;;21.52;;
70297;SDS011;57702;44.420;20.298;2023-02-22T22:25:13;46.03;;;14.20;;
70297;SDS011;57702;44.420;20.298;2023-02-22T22:27:43;118.63;;;24.35;;
70297;SDS011;57702;44.420;20.298;2023-02-22T22:30:12;31.58;;;12.88;;
70297;SDS011;57702;44.420;20.298;2023-02-22T22:32:41;24.50;;;10.25;;
70297;SDS011;57702;44.420;20.298;2023-02-22T22:35:08;26.45;;;8.18;;
70297;SDS011;57702;44.420;20.298;2023-02-22T22:37:41;44.75;;;12.95;;
70297;SDS011;57702;44.420;20.298;2023-02-22T22:40:08;84.10;;;18.00;;
70297;SDS011;57702;44.420;20.298;2023-02-22T22:42:40;89.78;;;18.88;;
70297;SDS011;57702;44.420;20.298;2023-02-22T22:45:06;146.63;;;32.08;;
70297;SDS011;57702;44.420;20.298;2023-02-22T22:47:38;132.95;;;28.40;;
70297;SDS011;57702;44.420;20.298;2023-02-22T22:50:14;123.43;;;23.15;;
70297;SDS011;57702;44.420;20.298;2023-02-22T22:52:50;108.15;;;21.15;;
70297;SDS011;57702;44.420;20.298;2023-02-22T22:55:22;85.90;;;23.05;;
70297;SDS011;57702;44.420;20.298;2023-02-22T22:57:56;45.15;;;16.23;;
70297;SDS011;57702;44.420;20.298;2023-02-22T23:00:23;59.05;;;17.88;;
70297;SDS011;57702;44.420;20.298;2023-02-22T23:02:55;25.73;;;13.45;;
70297;SDS011;57702;44.420;20.298;2023-02-22T23:05:25;53.95;;;21.10;;
70297;SDS011;57702;44.420;20.298;2023-02-22T23:07:53;32.92;;;13.90;;
70297;SDS011;57702;44.420;20.298;2023-02-22T23:10:29;55.05;;;14.35;;
70297;SDS011;57702;44.420;20.298;2023-02-22T23:12:55;37.22;;;14.13;;
70297;SDS011;57702;44.420;20.298;2023-02-22T23:15:22;33.17;;;12.13;;
70297;SDS011;57702;44.420;20.298;2023-02-22T23:17:51;24.30;;;10.77;;
70297;SDS011;57702;44.420;20.298;2023-02-22T23:20:24;33.92;;;9.85;;
70297;SDS011;57702;44.420;20.298;2023-02-22T23:22:53;22.75;;;9.98;;
70297;SDS011;57702;44.420;20.298;2023-02-22T23:25:22;49.40;;;12.38;;
70297;SDS011;57702;44.420;20.298;2023-02-22T23:27:49;29.08;;;8.73;;
70297;SDS011;57702;44.420;20.298;2023-02-22T23:30:16;38.97;;;11.98;;
70297;SDS011;57702;44.420;20.298;2023-02-22T23:32:46;61.67;;;15.95;;
70297;SDS011;57702;44.420;20.298;2023-02-22T23:35:15;48.38;;;14.73;;
70297;SDS011;57702;44.420;20.298;2023-02-22T23:37:48;38.95;;;12.70;;